createdAt,value
2016-05-17T00:00:30.406Z,54.41
2016-05-17T00:01:30.425Z,54.7
2016-05-17T00:02:30.631Z,54.7
2016-05-17T00:03:30.727Z,54.79
2016-05-17T00:04:30.323Z,54.79
2016-05-17T00:05:30.153Z,54.7
2016-05-17T00:06:30.594Z,55.08
2016-05-17T00:07:30.441Z,54.7
2016-05-17T00:08:30.302Z,55.08
2016-05-17T00:09:30.602Z,55.08
2016-05-17T00:10:30.136Z,54.99
2016-05-17T00:11:30.155Z,55.08
2016-05-17T00:12:30.080Z,54.7
2016-05-17T00:13:30.113Z,54.89
2016-05-17T00:14:30.069Z,54.79
2016-05-17T00:15:30.212Z,54.79
2016-05-17T00:16:30.043Z,54.7
2016-05-17T00:17:29.999Z,54.77
2016-05-17T00:18:30.032Z,54.6
2016-05-17T00:19:30.536Z,54.7
2016-05-17T00:20:30.069Z,54.77
2016-05-17T00:21:30.197Z,54.86
2016-05-17T00:22:29.732Z,54.86
2016-05-17T00:23:29.906Z,54.57
2016-05-17T00:24:30.002Z,54.77
2016-05-17T00:25:29.770Z,54.57
2016-05-17T00:26:29.960Z,54.86
2016-05-17T00:27:29.588Z,54.79
2016-05-17T00:28:29.716Z,54.77
2016-05-17T00:29:29.734Z,54.7
2016-05-17T00:30:29.659Z,54.79
2016-05-17T00:31:29.802Z,54.77
2016-05-17T00:32:29.462Z,54.86
2016-05-17T00:33:30.464Z,54.86
2016-05-17T00:34:29.606Z,54.86
2016-05-17T00:35:29.563Z,55.05
2016-05-17T00:36:29.925Z,55.05
2016-05-17T00:37:30.490Z,55.05
2016-05-17T00:38:29.493Z,55.05
2016-05-17T00:39:29.495Z,54.96
2016-05-17T00:40:29.623Z,55.15
2016-05-17T00:41:30.344Z,55.05
2016-05-17T00:42:29.394Z,55.05
2016-05-17T00:43:29.600Z,55.05
2016-05-17T00:44:29.369Z,55.08
2016-05-17T00:45:29.325Z,55.05
2016-05-17T00:46:29.280Z,55.18
2016-05-17T00:47:29.783Z,55.15
2016-05-17T00:48:29.583Z,55.18
2016-05-17T00:49:29.304Z,55.05
2016-05-17T00:50:29.212Z,55.15
2016-05-17T00:51:29.527Z,55.05
2016-05-17T00:52:29.765Z,55.18
2016-05-17T00:53:29.627Z,55.08
2016-05-17T00:54:29.160Z,55.15
2016-05-17T00:55:29.163Z,55.15
2016-05-17T00:56:29.713Z,55.15
2016-05-17T00:57:29.200Z,55.08
2016-05-17T00:58:29.031Z,55.08
2016-05-17T00:59:28.909Z,55.08
2016-05-17T01:00:28.896Z,55.05
2016-05-17T01:01:29.024Z,54.67
2016-05-17T01:02:29.698Z,54.67
2016-05-17T01:03:28.873Z,55.24
2016-05-17T01:04:29.328Z,54.86
2016-05-17T01:05:29.722Z,54.89
2016-05-17T01:06:28.927Z,54.96
2016-05-17T01:07:28.743Z,54.96
2016-05-17T01:08:29.089Z,55.18
2016-05-17T01:09:28.905Z,55.43
2016-05-17T01:10:28.689Z,55.53
2016-05-17T01:11:29.550Z,55.53
2016-05-17T01:12:28.647Z,55.43
2016-05-17T01:13:28.759Z,55.43
2016-05-17T01:14:28.949Z,55.62
2016-05-17T01:15:28.905Z,55.62
2016-05-17T01:16:28.408Z,55.43
2016-05-17T01:17:28.364Z,55.53
2016-05-17T01:18:28.507Z,55.43
2016-05-17T01:19:28.728Z,55.53
2016-05-17T01:20:28.419Z,55.43
2016-05-17T01:21:28.796Z,55.43
2016-05-17T01:22:28.361Z,55.34
2016-05-17T01:23:28.207Z,55.34
2016-05-17T01:24:28.335Z,55.43
2016-05-17T01:25:28.338Z,55.43
2016-05-17T01:26:28.451Z,55.24
2016-05-17T01:27:28.265Z,55.24
2016-05-17T01:28:28.237Z,55.24
2016-05-17T01:29:28.739Z,54.86
2016-05-17T01:30:28.195Z,55.24
2016-05-17T01:31:28.167Z,54.96
2016-05-17T01:32:28.106Z,55.43
2016-05-17T01:33:28.376Z,55.18
2016-05-17T01:34:28.331Z,55.53
2016-05-17T01:35:28.615Z,55.27
2016-05-17T01:36:28.571Z,55.24
2016-05-17T01:37:28.948Z,55.34
2016-05-17T01:38:28.061Z,55.34
2016-05-17T01:39:27.985Z,55.18
2016-05-17T01:40:27.988Z,55.24
2016-05-17T01:41:27.959Z,55.53
2016-05-17T01:42:27.884Z,55.34
2016-05-17T01:43:27.886Z,55.62
2016-05-17T01:44:27.827Z,55.62
2016-05-17T01:45:28.047Z,55.65
2016-05-17T01:46:27.800Z,55.72
2016-05-17T01:47:27.788Z,55.72
2016-05-17T01:48:27.821Z,55.72
2016-05-17T01:49:27.763Z,55.62
2016-05-17T01:50:27.686Z,55.82
2016-05-17T01:51:28.471Z,55.72
2016-05-17T01:52:27.630Z,55.72
2016-05-17T01:53:27.601Z,55.62
2016-05-17T01:54:27.416Z,55.82
2016-05-17T01:55:27.824Z,55.62
2016-05-17T01:56:27.656Z,55.62
2016-05-17T01:57:28.315Z,55.62
2016-05-17T01:58:27.912Z,55.82
2016-05-17T01:59:27.492Z,55.91
2016-05-17T02:00:27.432Z,55.84
2016-05-17T02:01:27.529Z,56.01
2016-05-17T02:02:28.078Z,55.62
2016-05-17T02:03:28.409Z,55.72
2016-05-17T02:04:27.395Z,55.53
2016-05-17T02:05:27.337Z,56.01
2016-05-17T02:06:27.839Z,56.29
2016-05-17T02:07:27.357Z,56.29
2016-05-17T02:08:27.376Z,56.2
2016-05-17T02:09:28.112Z,56.1
2016-05-17T02:10:27.272Z,56.2
2016-05-17T02:11:27.212Z,56.1
2016-05-17T02:12:27.620Z,56.2
2016-05-17T02:13:27.123Z,56.29
2016-05-17T02:14:27.205Z,55.72
2016-05-17T02:15:27.207Z,55.82
2016-05-17T02:16:27.913Z,55.91
2016-05-17T02:17:27.166Z,56.04
2016-05-17T02:18:27.043Z,55.91
2016-05-17T02:19:27.015Z,55.82
2016-05-17T02:20:27.391Z,55.82
2016-05-17T02:21:27.238Z,55.91
2016-05-17T02:22:27.022Z,56.58
2016-05-17T02:23:27.057Z,56.38
2016-05-17T02:24:26.903Z,56.38
2016-05-17T02:25:26.843Z,56.51
2016-05-17T02:26:26.799Z,56.48
2016-05-17T02:27:26.771Z,56.48
2016-05-17T02:28:26.804Z,56.48
2016-05-17T02:29:26.901Z,56.01
2016-05-17T02:30:26.935Z,56.48
2016-05-17T02:31:26.563Z,56.38
2016-05-17T02:32:26.893Z,56.01
2016-05-17T02:33:26.709Z,56.48
2016-05-17T02:34:28.539Z,56.38
2016-05-17T02:35:27.104Z,55.91
2016-05-17T02:36:26.825Z,56.38
2016-05-17T02:37:26.454Z,55.91
2016-05-17T02:38:26.550Z,56.01
2016-05-17T02:39:26.709Z,56.01
2016-05-17T02:40:26.681Z,55.72
2016-05-17T02:41:26.308Z,55.82
2016-05-17T02:42:26.420Z,56.1
2016-05-17T02:43:26.391Z,55.72
2016-05-17T02:44:26.410Z,56.2
2016-05-17T02:45:26.319Z,55.82
2016-05-17T02:46:26.681Z,55.72
2016-05-17T02:47:26.325Z,56.1
2016-05-17T02:48:26.296Z,56.01
2016-05-17T02:49:26.282Z,56.01
2016-05-17T02:50:26.285Z,55.91
2016-05-17T02:51:26.195Z,56.1
2016-05-17T02:52:26.166Z,56.2
2016-05-17T02:53:26.138Z,56.29
2016-05-17T02:54:26.140Z,56.1
2016-05-17T02:55:26.127Z,55.91
2016-05-17T02:56:26.927Z,55.82
2016-05-17T02:57:26.054Z,56.23
2016-05-17T02:58:26.338Z,56.29
2016-05-17T02:59:26.013Z,56.38
2016-05-17T03:00:25.969Z,56.1
2016-05-17T03:01:26.346Z,56.29
2016-05-17T03:02:26.349Z,56.1
2016-05-17T03:03:25.914Z,56.2
2016-05-17T03:04:26.370Z,56.2
2016-05-17T03:05:25.920Z,56.29
2016-05-17T03:06:25.797Z,56.38
2016-05-17T03:07:27.050Z,56.29
2016-05-17T03:08:25.771Z,56.29
2016-05-17T03:09:25.773Z,56.29
2016-05-17T03:10:25.855Z,56.38
2016-05-17T03:11:25.748Z,56.1
2016-05-17T03:12:27.579Z,56.2
2016-05-17T03:13:25.925Z,56.1
2016-05-17T03:14:26.522Z,56.58
2016-05-17T03:15:25.852Z,56.58
2016-05-17T03:16:25.606Z,56.48
2016-05-17T03:17:25.905Z,56.48
2016-05-17T03:18:25.564Z,56.48
2016-05-17T03:19:25.520Z,56.77
2016-05-17T03:20:25.507Z,56.67
2016-05-17T03:21:26.227Z,56.67
2016-05-17T03:22:26.730Z,56.67
2016-05-17T03:23:25.405Z,56.77
2016-05-17T03:24:25.580Z,56.38
2016-05-17T03:25:25.379Z,56.48
2016-05-17T03:26:26.210Z,56.58
2016-05-17T03:27:26.291Z,56.67
2016-05-17T03:28:25.747Z,56.58
2016-05-17T03:29:26.171Z,56.67
2016-05-17T03:30:25.330Z,56.67
2016-05-17T03:31:25.270Z,56.58
2016-05-17T03:32:26.211Z,56.67
2016-05-17T03:33:25.168Z,56.58
2016-05-17T03:34:25.185Z,56.38
2016-05-17T03:35:25.110Z,56.48
2016-05-17T03:36:25.565Z,56.38
2016-05-17T03:37:25.443Z,56.77
2016-05-17T03:38:25.070Z,57.15
2016-05-17T03:39:24.902Z,56.77
2016-05-17T03:40:25.092Z,56.77
2016-05-17T03:41:24.970Z,57.15
2016-05-17T03:42:24.941Z,57.06
2016-05-17T03:43:25.240Z,57.15
2016-05-17T03:44:25.837Z,57.15
2016-05-17T03:45:25.355Z,57.15
2016-05-17T03:46:26.264Z,57.15
2016-05-17T03:47:25.797Z,56.1
2016-05-17T03:48:24.911Z,56.96
2016-05-17T03:49:25.522Z,56.96
2016-05-17T03:50:24.774Z,56.96
2016-05-17T03:51:24.887Z,56.96
2016-05-17T03:52:25.202Z,56.96
2016-05-17T03:53:24.674Z,56.87
2016-05-17T03:54:24.644Z,56.77
2016-05-17T03:55:24.647Z,56.67
2016-05-17T03:56:25.057Z,56.77
2016-05-17T03:57:24.997Z,56.87
2016-05-17T03:58:24.593Z,56.77
2016-05-17T03:59:24.533Z,56.67
2016-05-17T04:00:24.583Z,56.96
2016-05-17T04:01:24.570Z,56.96
2016-05-17T04:02:25.182Z,57.06
2016-05-17T04:03:24.497Z,56.77
2016-05-17T04:04:24.907Z,57.06
2016-05-17T04:05:24.394Z,57.53
2016-05-17T04:06:24.943Z,57.72
2016-05-17T04:07:24.712Z,57.15
2016-05-17T04:08:24.307Z,57.06
2016-05-17T04:09:24.310Z,56.96
2016-05-17T04:10:24.734Z,57.06
2016-05-17T04:11:24.237Z,57.34
2016-05-17T04:12:24.334Z,57.34
2016-05-17T04:13:24.321Z,56.96
2016-05-17T04:14:23.980Z,57.43
2016-05-17T04:15:24.420Z,57.24
2016-05-17T04:16:24.158Z,57.34
2016-05-17T04:17:24.160Z,57.24
2016-05-17T04:18:24.241Z,57.43
2016-05-17T04:19:24.336Z,57.43
2016-05-17T04:20:24.059Z,57.24
2016-05-17T04:21:24.015Z,57.34
2016-05-17T04:22:24.720Z,57.34
2016-05-17T04:23:23.770Z,57.24
2016-05-17T04:24:24.100Z,57.34
2016-05-17T04:25:23.916Z,57.43
2016-05-17T04:26:24.309Z,57.43
2016-05-17T04:27:24.062Z,56.96
2016-05-17T04:28:24.143Z,57.15
2016-05-17T04:29:23.974Z,57.24
2016-05-17T04:30:23.788Z,57.06
2016-05-17T04:31:24.604Z,57.15
2016-05-17T04:32:24.341Z,57.06
2016-05-17T04:33:23.578Z,57.15
2016-05-17T04:34:23.987Z,57.24
2016-05-17T04:35:23.629Z,57.06
2016-05-17T04:36:23.837Z,57.06
2016-05-17T04:37:24.277Z,57.06
2016-05-17T04:38:23.748Z,57.06
2016-05-17T04:39:23.610Z,57.15
2016-05-17T04:40:23.550Z,57.06
2016-05-17T04:41:23.834Z,57.24
2016-05-17T04:42:23.492Z,57.06
2016-05-17T04:43:23.495Z,57.06
2016-05-17T04:44:23.467Z,57.43
2016-05-17T04:45:23.392Z,57.06
2016-05-17T04:46:23.504Z,57.24
2016-05-17T04:47:23.694Z,57.53
2016-05-17T04:48:23.353Z,56.96
2016-05-17T04:49:23.308Z,57.34
2016-05-17T04:50:23.264Z,57.43
2016-05-17T04:51:23.672Z,57.15
2016-05-17T04:52:23.520Z,57.43
2016-05-17T04:53:23.429Z,56.96
2016-05-17T04:54:23.994Z,57.43
2016-05-17T04:55:23.278Z,57.09
2016-05-17T04:56:23.140Z,57.15
2016-05-17T04:57:23.158Z,57.09
2016-05-17T04:58:23.567Z,57.09
2016-05-17T04:59:23.413Z,57.24
2016-05-17T05:00:23.041Z,57.15
2016-05-17T05:01:23.044Z,57.15
2016-05-17T05:02:23.219Z,57.09
2016-05-17T05:03:22.971Z,57.18
2016-05-17T05:04:22.990Z,57.09
2016-05-17T05:05:23.117Z,57.43
2016-05-17T05:06:23.823Z,57.09
2016-05-17T05:07:23.122Z,57.09
2016-05-17T05:08:22.859Z,57.18
2016-05-17T05:09:22.822Z,57.09
2016-05-17T05:10:22.929Z,57.18
2016-05-17T05:11:22.866Z,57.18
2016-05-17T05:12:22.879Z,56.89
2016-05-17T05:13:22.910Z,57.28
2016-05-17T05:14:22.911Z,57.18
2016-05-17T05:15:23.022Z,57.09
2016-05-17T05:16:22.901Z,56.99
2016-05-17T05:17:23.168Z,57.28
2016-05-17T05:18:22.890Z,57.09
2016-05-17T05:19:22.872Z,57.46
2016-05-17T05:20:22.770Z,57.09
2016-05-17T05:21:23.044Z,57.56
2016-05-17T05:22:22.864Z,57.28
2016-05-17T05:23:24.059Z,57.28
2016-05-17T05:24:22.753Z,57.46
2016-05-17T05:25:22.758Z,57.46
2016-05-17T05:26:22.716Z,57.37
2016-05-17T05:27:22.720Z,57.37
2016-05-17T05:28:22.694Z,57.28
2016-05-17T05:29:22.792Z,57.28
2016-05-17T05:30:22.639Z,57.37
2016-05-17T05:31:22.985Z,57.28
2016-05-17T05:32:22.599Z,57.28
2016-05-17T05:33:22.587Z,57.37
2016-05-17T05:34:22.558Z,57.37
2016-05-17T05:35:22.546Z,57.28
2016-05-17T05:36:22.659Z,57.37
2016-05-17T05:37:23.505Z,57.46
2016-05-17T05:38:22.477Z,57.37
2016-05-17T05:39:22.449Z,57.37
2016-05-17T05:40:22.420Z,57.37
2016-05-17T05:41:22.813Z,57.37
2016-05-17T05:42:22.441Z,57.28
2016-05-17T05:43:22.335Z,57.46
2016-05-17T05:44:22.431Z,57.28
2016-05-17T05:45:23.074Z,57.46
2016-05-17T05:46:22.249Z,57.46
2016-05-17T05:47:23.111Z,57.56
2016-05-17T05:48:22.240Z,57.09
2016-05-17T05:49:22.178Z,57.56
2016-05-17T05:50:22.322Z,56.99
2016-05-17T05:51:22.168Z,57.18
2016-05-17T05:52:22.171Z,57.09
2016-05-17T05:53:21.924Z,56.8
2016-05-17T05:54:22.443Z,57.09
2016-05-17T05:55:22.679Z,57.09
2016-05-17T05:56:22.792Z,57.09
2016-05-17T05:57:22.076Z,57.09
2016-05-17T05:58:21.969Z,56.8
2016-05-17T05:59:21.972Z,56.89
2016-05-17T06:00:22.506Z,56.89
2016-05-17T06:01:21.899Z,56.89
2016-05-17T06:02:22.261Z,56.89
2016-05-17T06:03:22.451Z,56.89
2016-05-17T06:04:22.532Z,56.89
2016-05-17T06:05:21.800Z,56.89
2016-05-17T06:06:22.224Z,57.18
2016-05-17T06:07:21.774Z,56.82
2016-05-17T06:08:21.777Z,56.89
2016-05-17T06:09:21.671Z,57.09
2016-05-17T06:10:21.673Z,56.82
2016-05-17T06:11:22.097Z,56.82
2016-05-17T06:12:22.084Z,56.92
2016-05-17T06:13:22.118Z,56.8
2016-05-17T06:14:22.668Z,56.89
2016-05-17T06:15:21.718Z,56.7
2016-05-17T06:16:21.501Z,56.99
2016-05-17T06:17:22.457Z,56.89
2016-05-17T06:18:21.601Z,56.89
2016-05-17T06:19:21.447Z,56.92
2016-05-17T06:20:21.419Z,56.99
2016-05-17T06:21:21.499Z,56.82
2016-05-17T06:22:21.455Z,56.99
2016-05-17T06:23:21.348Z,56.92
2016-05-17T06:24:21.523Z,56.8
2016-05-17T06:25:21.339Z,56.63
2016-05-17T06:26:21.295Z,56.92
2016-05-17T06:27:21.251Z,56.92
2016-05-17T06:28:21.283Z,56.92
2016-05-17T06:29:21.303Z,57.11
2016-05-17T06:30:21.008Z,56.92
2016-05-17T06:31:21.292Z,56.92
2016-05-17T06:32:21.529Z,56.92
2016-05-17T06:33:21.814Z,56.92
2016-05-17T06:34:21.800Z,56.63
2016-05-17T06:35:21.600Z,57.02
2016-05-17T06:36:21.040Z,57.11
2016-05-17T06:37:21.496Z,57.11
2016-05-17T06:38:21.045Z,56.92
2016-05-17T06:39:21.126Z,57.11
2016-05-17T06:40:20.972Z,57.02
2016-05-17T06:41:21.163Z,57.02
2016-05-17T06:42:21.494Z,57.21
2016-05-17T06:43:20.949Z,57.21
2016-05-17T06:44:20.874Z,57.11
2016-05-17T06:45:20.846Z,57.02
2016-05-17T06:46:21.098Z,57.11
2016-05-17T06:47:20.866Z,57.21
2016-05-17T06:48:20.759Z,57.21
2016-05-17T06:49:20.778Z,56.92
2016-05-17T06:50:21.109Z,57.02
2016-05-17T06:51:20.674Z,56.92
2016-05-17T06:52:21.457Z,56.54
2016-05-17T06:53:21.335Z,56.73
2016-05-17T06:54:20.635Z,56.73
2016-05-17T06:55:20.590Z,56.73
2016-05-17T06:56:21.140Z,56.92
2016-05-17T06:57:20.814Z,56.82
2016-05-17T06:58:20.553Z,56.63
2016-05-17T06:59:20.508Z,56.54
2016-05-17T07:00:20.448Z,56.54
2016-05-17T07:01:20.466Z,56.38
2016-05-17T07:02:20.609Z,56.38
2016-05-17T07:03:20.394Z,56.35
2016-05-17T07:04:20.474Z,55.99
2016-05-17T07:05:20.508Z,55.99
2016-05-17T07:06:20.152Z,56.28
2016-05-17T07:07:20.420Z,56.18
2016-05-17T07:08:20.204Z,55.71
2016-05-17T07:09:20.238Z,56.38
2016-05-17T07:10:20.271Z,56.09
2016-05-17T07:11:20.180Z,56.67
2016-05-17T07:12:20.605Z,55.99
2016-05-17T07:13:20.343Z,55.9
2016-05-17T07:14:20.954Z,56.18
2016-05-17T07:15:20.098Z,56.09
2016-05-17T07:16:20.069Z,56.18
2016-05-17T07:17:20.119Z,56.28
2016-05-17T07:18:20.121Z,55.99
2016-05-17T07:19:20.015Z,56.47
2016-05-17T07:20:20.111Z,56.18
2016-05-17T07:21:20.332Z,55.8
2016-05-17T07:22:20.195Z,56.18
2016-05-17T07:23:19.931Z,55.9
2016-05-17T07:24:20.029Z,56.38
2016-05-17T07:25:19.826Z,56.28
2016-05-17T07:26:19.909Z,56.38
2016-05-17T07:27:20.537Z,56.28
2016-05-17T07:28:19.802Z,56.18
2016-05-17T07:29:19.742Z,55.99
2016-05-17T07:30:19.948Z,55.8
2016-05-17T07:31:19.888Z,55.99
2016-05-17T07:32:19.734Z,55.9
2016-05-17T07:33:19.815Z,55.71
2016-05-17T07:34:20.461Z,55.74
2016-05-17T07:35:19.883Z,55.74
2016-05-17T07:36:19.464Z,55.35
2016-05-17T07:37:19.920Z,55.54
2016-05-17T07:38:19.563Z,55.26
2016-05-17T07:39:19.722Z,55.54
2016-05-17T07:40:19.522Z,55.54
2016-05-17T07:41:19.524Z,55.16
2016-05-17T07:42:22.905Z,55.16
2016-05-17T07:43:19.452Z,55.35
2016-05-17T07:44:19.454Z,55.35
2016-05-17T07:45:19.379Z,55.45
2016-05-17T07:46:19.396Z,55.35
2016-05-17T07:47:19.322Z,54.97
2016-05-17T07:48:19.294Z,55.45
2016-05-17T07:49:19.499Z,55.64
2016-05-17T07:50:19.346Z,55.54
2016-05-17T07:51:19.238Z,55.64
2016-05-17T07:52:20.226Z,55.26
2016-05-17T07:53:19.260Z,55.16
2016-05-17T07:54:19.481Z,55.45
2016-05-17T07:55:19.343Z,55.45
2016-05-17T07:56:19.283Z,55.35
2016-05-17T07:57:19.927Z,55.26
2016-05-17T07:58:19.101Z,54.97
2016-05-17T07:59:19.667Z,54.78
2016-05-17T08:00:19.310Z,54.97
2016-05-17T08:01:19.344Z,55.16
2016-05-17T08:02:18.956Z,55.16
2016-05-17T08:03:18.959Z,55.29
2016-05-17T08:04:19.258Z,54.9
2016-05-17T08:05:19.230Z,55.29
2016-05-17T08:06:18.716Z,55.19
2016-05-17T08:07:18.861Z,54.9
2016-05-17T08:08:19.269Z,55.1
2016-05-17T08:09:18.849Z,55
2016-05-17T08:10:18.806Z,55.07
2016-05-17T08:11:19.636Z,55
2016-05-17T08:12:19.608Z,55.19
2016-05-17T08:13:18.705Z,54.71
2016-05-17T08:14:18.566Z,55
2016-05-17T08:15:18.538Z,54.8
2016-05-17T08:16:18.618Z,55
2016-05-17T08:17:18.590Z,54.8
2016-05-17T08:18:18.593Z,54.8
2016-05-17T08:19:18.579Z,54.9
2016-05-17T08:20:18.832Z,54.9
2016-05-17T08:21:18.460Z,54.9
2016-05-17T08:22:18.603Z,54.52
2016-05-17T08:23:18.622Z,54.23
2016-05-17T08:24:18.718Z,54.23
2016-05-17T08:25:18.534Z,54.14
2016-05-17T08:26:18.567Z,54.33
2016-05-17T08:27:18.414Z,54.33
2016-05-17T08:28:18.573Z,54.23
2016-05-17T08:29:18.528Z,54.14
2016-05-17T08:30:18.312Z,53.94
2016-05-17T08:31:18.893Z,53.85
2016-05-17T08:32:18.256Z,53.94
2016-05-17T08:33:18.273Z,53.94
2016-05-17T08:34:18.276Z,53.75
2016-05-17T08:35:18.373Z,54.14
2016-05-17T08:36:18.892Z,53.94
2016-05-17T08:37:18.175Z,54.23
2016-05-17T08:38:18.381Z,53.94
2016-05-17T08:39:18.681Z,53.88
2016-05-17T08:40:18.370Z,53.85
2016-05-17T08:41:18.061Z,53.49
2016-05-17T08:42:18.673Z,53.69
2016-05-17T08:43:18.316Z,53.78
2016-05-17T08:44:17.866Z,53.69
2016-05-17T08:45:17.977Z,53.78
2016-05-17T08:46:18.308Z,53.3
2016-05-17T08:47:18.202Z,53.78
2016-05-17T08:48:18.517Z,53.69
2016-05-17T08:49:18.019Z,53.4
2016-05-17T08:50:17.694Z,53.49
2016-05-17T08:51:17.821Z,53.2
2016-05-17T08:52:18.574Z,53.4
2016-05-17T08:53:18.468Z,53.2
2016-05-17T08:54:17.612Z,53.49
2016-05-17T08:55:17.833Z,53.3
2016-05-17T08:56:17.898Z,53.49
2016-05-17T08:57:17.901Z,53.3
2016-05-17T08:58:17.904Z,52.92
2016-05-17T08:59:17.453Z,52.73
2016-05-17T09:00:17.518Z,52.66
2016-05-17T09:01:17.599Z,52.47
2016-05-17T09:02:17.836Z,52.37
2016-05-17T09:03:17.573Z,52.18
2016-05-17T09:04:17.544Z,52.09
2016-05-17T09:05:17.484Z,51.89
2016-05-17T09:06:17.534Z,51.89
2016-05-17T09:07:18.036Z,51.99
2016-05-17T09:08:17.414Z,51.89
2016-05-17T09:09:34.139Z,51.79
2016-05-17T09:10:17.436Z,51.99
2016-05-17T09:11:17.220Z,51.82
2016-05-17T09:12:17.363Z,52.01
2016-05-17T09:13:17.350Z,52.11
2016-05-17T09:14:17.305Z,51.82
2016-05-17T09:15:17.153Z,52.01
2016-05-17T09:16:17.671Z,51.82
2016-05-17T09:17:17.252Z,51.73
2016-05-17T09:18:17.363Z,51.63
2016-05-17T09:19:17.257Z,51.15
2016-05-17T09:20:17.165Z,51.15
2016-05-17T09:21:17.199Z,51.15
2016-05-17T09:22:20.155Z,51.25
2016-05-17T09:23:17.111Z,51.15
2016-05-17T09:24:17.068Z,50.79
2016-05-17T09:25:17.085Z,51.18
2016-05-17T09:26:17.463Z,51.18
2016-05-17T09:27:17.185Z,50.89
2016-05-17T09:28:16.999Z,50.79
2016-05-17T09:29:17.065Z,50.51
2016-05-17T09:30:30.679Z,50.79
2016-05-17T09:31:16.961Z,50.79
2016-05-17T09:32:16.948Z,50.82
2016-05-17T09:33:16.888Z,50.79
2016-05-17T09:34:16.907Z,50.7
2016-05-17T09:35:16.940Z,51.01
2016-05-17T09:36:16.709Z,50.6
2016-05-17T09:37:16.884Z,50.51
2016-05-17T09:38:16.839Z,50.53
2016-05-17T09:39:16.779Z,50.53
2016-05-17T09:40:16.798Z,50.34
2016-05-17T09:41:16.753Z,50.53
2016-05-17T09:42:16.662Z,50.53
2016-05-17T09:43:16.744Z,50.53
2016-05-17T09:44:16.636Z,50.34
2016-05-17T09:45:16.608Z,50.15
2016-05-17T09:46:16.688Z,50.05
2016-05-17T09:47:16.441Z,50.15
2016-05-17T09:48:16.585Z,50.05
2016-05-17T09:49:16.540Z,50.05
2016-05-17T09:50:16.480Z,50.05
2016-05-17T09:51:16.530Z,49.76
2016-05-17T09:52:16.502Z,49.96
2016-05-17T09:53:16.630Z,49.86
2016-05-17T09:54:16.305Z,50.15
2016-05-17T09:55:16.556Z,49.96
2016-05-17T09:56:16.388Z,49.86
2016-05-17T09:57:16.297Z,49.57
2016-05-17T09:58:16.190Z,49.57
2016-05-17T09:59:16.287Z,49.69
2016-05-17T10:00:16.257Z,49.79
2016-05-17T10:01:16.260Z,49.48
2016-05-17T10:02:16.326Z,49.6
2016-05-17T10:03:16.234Z,49.31
2016-05-17T10:04:16.065Z,49.5
2016-05-17T10:05:16.037Z,49.88
2016-05-17T10:06:15.961Z,49.88
2016-05-17T10:07:16.120Z,49.41
2016-05-17T10:08:16.201Z,49.6
2016-05-17T10:09:16.064Z,49.41
2016-05-17T10:10:16.159Z,49.31
2016-05-17T10:11:16.131Z,49.21
2016-05-17T10:12:15.930Z,49.31
2016-05-17T10:13:15.965Z,48.83
2016-05-17T10:14:15.998Z,49.31
2016-05-17T10:15:16.001Z,49.02
2016-05-17T10:16:16.098Z,49.12
2016-05-17T10:17:16.178Z,49.05
2016-05-17T10:18:15.916Z,49.12
2016-05-17T10:19:15.903Z,48.85
2016-05-17T10:20:15.936Z,48.16
2016-05-17T10:21:15.814Z,48.57
2016-05-17T10:22:16.692Z,48.38
2016-05-17T10:23:15.991Z,48.47
2016-05-17T10:24:15.854Z,48.47
2016-05-17T10:25:15.590Z,48.38
2016-05-17T10:26:15.719Z,48.47
2016-05-17T10:27:15.752Z,48.28
2016-05-17T10:28:15.692Z,48.09
2016-05-17T10:29:15.711Z,48.18
2016-05-17T10:30:16.120Z,48.18
2016-05-17T10:31:15.622Z,48.09
2016-05-17T10:32:15.516Z,47.89
2016-05-17T10:33:15.737Z,47.8
2016-05-17T10:34:15.568Z,48.21
2016-05-17T10:35:15.618Z,48.11
2016-05-17T10:36:15.651Z,48.11
2016-05-17T10:37:15.356Z,48.3
2016-05-17T10:38:15.517Z,47.71
2016-05-17T10:39:15.487Z,48.4
2016-05-17T10:40:15.553Z,48.4
2016-05-17T10:41:15.181Z,48.28
2016-05-17T10:42:15.356Z,48.47
2016-05-17T10:43:15.389Z,48.57
2016-05-17T10:44:15.251Z,48.38
2016-05-17T10:45:15.442Z,47.61
2016-05-17T10:46:15.303Z,48.28
2016-05-17T10:47:15.244Z,48.21
2016-05-17T10:48:15.372Z,47.72
2016-05-17T10:49:15.108Z,47.72
2016-05-17T10:50:15.064Z,47.63
2016-05-17T10:51:15.177Z,47.63
2016-05-17T10:52:28.883Z,47.44
2016-05-17T10:53:15.228Z,48.21
2016-05-17T10:54:15.091Z,47.82
2016-05-17T10:55:15.093Z,48.02
2016-05-17T10:56:15.096Z,48.02
2016-05-17T10:57:14.864Z,47.92
2016-05-17T10:58:15.007Z,47.63
2016-05-17T10:59:18.057Z,47.53
2016-05-17T11:00:14.982Z,47.25
2016-05-17T11:01:15.000Z,47.92
2016-05-17T11:02:14.971Z,47.92
2016-05-17T11:03:14.787Z,47.53
2016-05-17T11:04:15.382Z,47.63
2016-05-17T11:05:14.698Z,47.25
2016-05-17T11:06:14.888Z,47.15
2016-05-17T11:07:14.812Z,47.34
2016-05-17T11:08:14.815Z,47.44
2016-05-17T11:09:14.756Z,47.34
2016-05-17T11:10:14.790Z,47.34
2016-05-17T11:11:14.605Z,47.44
2016-05-17T11:12:14.811Z,47.25
2016-05-17T11:13:14.656Z,47.53
2016-05-17T11:14:15.206Z,47.53
2016-05-17T11:15:14.616Z,47.53
2016-05-17T11:16:14.477Z,48.02
2016-05-17T11:17:14.605Z,48.11
2016-05-17T11:18:14.608Z,48.47
2016-05-17T11:19:14.548Z,48.57
2016-05-17T11:20:14.583Z,48.47
2016-05-17T11:21:14.398Z,48.66
2016-05-17T11:22:14.415Z,48.66
2016-05-17T11:23:14.527Z,48.47
2016-05-17T11:24:14.562Z,48.66
2016-05-17T11:25:14.408Z,48.66
2016-05-17T11:26:14.396Z,48.44
2016-05-17T11:27:14.445Z,48.47
2016-05-17T11:28:14.369Z,48.25
2016-05-17T11:29:14.325Z,48.18
2016-05-17T11:30:14.312Z,47.71
2016-05-17T11:31:14.315Z,47.71
2016-05-17T11:32:14.287Z,47.41
2016-05-17T11:33:14.352Z,47.41
2016-05-17T11:34:14.276Z,47.25
2016-05-17T11:35:14.216Z,46.67
2016-05-17T11:36:14.204Z,47.05
2016-05-17T11:37:14.065Z,46.96
2016-05-17T11:38:14.161Z,46.98
2016-05-17T11:39:14.134Z,46.89
2016-05-17T11:40:14.151Z,47.08
2016-05-17T11:41:14.342Z,47.17
2016-05-17T11:42:14.032Z,47.25
2016-05-17T11:43:14.050Z,47.34
2016-05-17T11:44:14.037Z,47.44
2016-05-17T11:45:14.071Z,47.34
2016-05-17T11:46:14.042Z,47.44
2016-05-17T11:47:14.030Z,47.72
2016-05-17T11:48:14.017Z,47.53
2016-05-17T11:49:13.925Z,47.63
2016-05-17T11:50:13.928Z,47.63
2016-05-17T11:51:13.869Z,47.63
2016-05-17T11:52:13.683Z,47.82
2016-05-17T11:53:14.249Z,47.53
2016-05-17T11:54:13.799Z,47.34
2016-05-17T11:55:14.051Z,47.15
2016-05-17T11:56:13.804Z,47.15
2016-05-17T11:57:13.713Z,47.34
2016-05-17T11:58:13.856Z,47.25
2016-05-17T11:59:13.703Z,47.25
2016-05-17T12:00:14.753Z,47.05
2016-05-17T12:01:14.004Z,47.05
2016-05-17T12:02:13.804Z,46.77
2016-05-17T12:03:13.776Z,47.05
2016-05-17T12:04:13.544Z,45.54
2016-05-17T12:05:13.578Z,45.56
2016-05-17T12:06:14.566Z,45.47
2016-05-17T12:07:13.521Z,45.35
2016-05-17T12:08:14.211Z,46.02
2016-05-17T12:09:13.479Z,46.21
2016-05-17T12:10:13.498Z,46.89
2016-05-17T12:11:13.656Z,47.08
2016-05-17T12:12:13.425Z,46.86
2016-05-17T12:13:14.506Z,46.96
2016-05-17T12:14:14.181Z,46.86
2016-05-17T12:15:13.355Z,47.15
2016-05-17T12:16:13.483Z,47.34
2016-05-17T12:17:14.251Z,47.34
2016-05-17T12:18:13.769Z,46.96
2016-05-17T12:19:18.647Z,47.15
2016-05-17T12:20:13.291Z,47.05
2016-05-17T12:21:13.278Z,46.96
2016-05-17T12:22:14.108Z,46.38
2016-05-17T12:23:13.595Z,45.73
2016-05-17T12:24:13.394Z,45.35
2016-05-17T12:25:26.897Z,45.64
2016-05-17T12:26:13.525Z,45.54
2016-05-17T12:27:14.575Z,45.47
2016-05-17T12:28:14.577Z,45.47
2016-05-17T12:29:14.393Z,45.83
2016-05-17T12:30:13.052Z,45.64
2016-05-17T12:31:13.180Z,45.73
2016-05-17T12:32:14.182Z,45.83
2016-05-17T12:33:14.451Z,46.79
2016-05-17T12:34:12.922Z,46.98
2016-05-17T12:35:13.002Z,46.77
2016-05-17T12:36:12.990Z,47.05
2016-05-17T12:37:13.086Z,47.44
2016-05-17T12:38:12.885Z,47.15
2016-05-17T12:39:12.920Z,47.13
2016-05-17T12:40:13.204Z,47.22
2016-05-17T12:41:12.831Z,47.22
2016-05-17T12:42:13.287Z,47.32
2016-05-17T12:43:12.821Z,47.32
2016-05-17T12:44:12.731Z,47.41
2016-05-17T12:45:13.108Z,47.13
2016-05-17T12:46:12.892Z,47.51
2016-05-17T12:47:12.676Z,47.3
2016-05-17T12:48:13.022Z,47.68
2016-05-17T12:49:12.664Z,47.68
2016-05-17T12:50:13.074Z,47.68
2016-05-17T12:51:12.842Z,47.49
2016-05-17T12:52:13.392Z,47.49
2016-05-17T12:53:12.738Z,47.68
2016-05-17T12:54:12.850Z,47.58
2016-05-17T12:55:12.666Z,47.68